Time;durP1;ratioP1;P1;durP2;ratioP2;P2;SDS_P1;SDS_P2;PMS_P1;PMS_P2;Temp;Humidity;BMP_temperature;BMP_pressure;BME280_temperature;BME280_humidity;BME280_pressure;Samples;Min_cycle;Max_cycle;Signal;HPM_P1;HPM_P2
2022/12/16 00:01:59;;;;;;;42.80;22.05;;;-0.90;99.90;;;;;;5078226;28;20036;-81
2022/12/16 00:04:26;;;;;;;40.15;22.35;;;-0.90;99.90;;;;;;5094844;28;20040;-81
2022/12/16 00:06:52;;;;;;;39.08;21.67;;;0.00;99.90;;;;;;5111232;28;20054;-81
2022/12/16 00:09:19;;;;;;;39.70;21.20;;;-0.90;99.90;;;;;;5111094;28;20119;-81
2022/12/16 00:11:46;;;;;;;40.05;21.42;;;-0.40;99.90;;;;;;5074274;28;20044;-82
2022/12/16 00:14:13;;;;;;;40.15;21.45;;;-0.80;99.90;;;;;;5091169;28;20106;-82
2022/12/16 00:16:39;;;;;;;40.97;21.05;;;-0.80;99.90;;;;;;5090576;28;20044;-82
2022/12/16 00:19:06;;;;;;;36.88;20.60;;;-0.80;99.90;;;;;;5090672;28;20076;-82
2022/12/16 00:21:33;;;;;;;43.85;22.42;;;-0.50;99.90;;;;;;5093740;28;20036;-81
2022/12/16 00:23:59;;;;;;;38.00;21.40;;;-0.80;99.90;;;;;;5110728;28;20488;-81
2022/12/16 00:26:28;;;;;;;42.78;21.20;;;-0.40;99.90;;;;;;5077587;28;20036;-81
2022/12/16 00:28:55;;;;;;;45.70;21.70;;;-0.80;99.90;;;;;;5128209;28;20079;-81
2022/12/16 00:31:22;;;;;;;33.80;20.65;;;-0.80;99.90;;;;;;5083519;28;20460;-82
2022/12/16 00:33:49;;;;;;;35.33;19.98;;;-0.80;99.90;;;;;;5107045;28;20090;-81
2022/12/16 00:36:15;;;;;;;35.67;19.23;;;-0.80;99.90;;;;;;5073934;28;20075;-81
2022/12/16 00:38:42;;;;;;;41.83;21.27;;;0.00;99.90;;;;;;5073131;28;20041;-82
2022/12/16 00:41:09;;;;;;;39.35;21.25;;;-0.70;99.90;;;;;;5079199;28;20052;-82
2022/12/16 00:43:35;;;;;;;40.42;19.65;;;0.30;99.90;;;;;;5089782;28;20037;-82
2022/12/16 00:46:02;;;;;;;40.50;21.35;;;-0.80;99.90;;;;;;5073828;28;20041;-82
2022/12/16 00:48:29;;;;;;;37.50;19.50;;;-0.80;99.90;;;;;;5073852;28;20040;-81
2022/12/16 00:50:56;;;;;;;41.38;20.85;;;-0.80;99.90;;;;;;5073860;28;20040;-83
2022/12/16 00:53:24;;;;;;;39.08;20.95;;;-0.80;99.90;;;;;;5057224;28;20044;-83
2022/12/16 00:56:00;;;;;;;36.92;20.60;;;-0.80;99.90;;;;;;5117328;28;20044;-82
2022/12/16 00:58:26;;;;;;;38.08;21.83;;;-0.70;99.90;;;;;;5137181;28;20047;-83
2022/12/16 01:00:53;;;;;;;39.30;20.55;;;-0.60;99.90;;;;;;5116355;28;20051;-83
2022/12/16 01:03:20;;;;;;;36.83;20.73;;;0.10;99.90;;;;;;5126961;28;20048;-82
2022/12/16 01:05:46;;;;;;;38.00;20.42;;;-0.70;99.90;;;;;;5110172;28;20515;-83
2022/12/16 01:08:13;;;;;;;40.25;19.92;;;-0.70;99.90;;;;;;5076776;28;20036;-83
2022/12/16 01:10:40;;;;;;;35.63;19.80;;;0.30;99.90;;;;;;5093120;28;20165;-82
2022/12/16 01:13:06;;;;;;;35.38;19.83;;;-0.70;99.90;;;;;;5110035;28;20040;-82
2022/12/16 01:15:33;;;;;;;35.75;19.50;;;-0.70;99.90;;;;;;5092917;28;20036;-82
2022/12/16 01:18:00;;;;;;;36.03;21.00;;;-0.70;99.90;;;;;;5093522;28;20044;-82
2022/12/16 01:20:26;;;;;;;38.30;20.70;;;-0.70;99.90;;;;;;5092957;28;20515;-82
2022/12/16 01:22:53;;;;;;;33.25;20.02;;;-0.70;99.90;;;;;;5089415;28;20535;-82
2022/12/16 01:25:20;;;;;;;43.83;21.25;;;-0.70;99.90;;;;;;5106251;28;20603;-82
2022/12/16 01:27:46;;;;;;;38.17;19.58;;;-0.70;99.90;;;;;;5089254;28;20033;-83
2022/12/16 01:30:13;;;;;;;34.38;18.88;;;0.10;99.90;;;;;;5089690;28;20056;-83
2022/12/16 01:32:40;;;;;;;34.75;19.50;;;-0.60;99.90;;;;;;5089116;28;20041;-82
2022/12/16 01:35:07;;;;;;;35.05;19.80;;;-0.60;99.90;;;;;;5089292;28;20439;-83
2022/12/16 01:37:34;;;;;;;35.38;19.55;;;-0.60;99.90;;;;;;5088950;28;20044;-82
2022/12/16 01:40:01;;;;;;;35.20;20.00;;;-0.60;99.90;;;;;;5088855;28;20562;-83
2022/12/16 01:42:30;;;;;;;35.55;19.75;;;-0.60;99.90;;;;;;5092156;28;20085;-82
2022/12/16 01:45:16;;;;;;;36.55;19.08;;;-0.60;99.90;;;;;;5092913;28;20036;-83
2022/12/16 01:47:44;;;;;;;38.90;20.55;;;-0.60;99.90;;;;;;5125877;28;20044;-82
2022/12/16 01:50:15;;;;;;;37.08;19.67;;;0.30;99.90;;;;;;5093174;28;20450;-82
2022/12/16 01:52:50;;;;;;;38.58;19.45;;;-0.60;99.90;;;;;;5109421;28;20036;-82
2022/12/16 01:55:34;;;;;;;35.70;19.35;;;-0.60;99.90;;;;;;5109568;28;20051;-82
2022/12/16 01:58:08;;;;;;;36.35;19.65;;;-0.60;99.90;;;;;;5125965;28;20051;-82
2022/12/16 02:00:36;;;;;;;35.15;19.95;;;-0.60;99.90;;;;;;5109404;28;20044;-83
2022/12/16 02:03:04;;;;;;;34.00;20.13;;;-0.60;99.90;;;;;;5103913;28;20072;-82
2022/12/16 02:05:34;;;;;;;34.35;19.63;;;-0.60;99.90;;;;;;5088947;28;20043;-82
2022/12/16 02:08:18;;;;;;;35.58;19.92;;;-0.60;99.90;;;;;;5089094;28;20041;-83
2022/12/16 02:11:10;;;;;;;38.67;20.50;;;-0.60;99.90;;;;;;5089002;28;20131;-82
2022/12/16 02:14:07;;;;;;;34.85;19.83;;;-0.60;99.90;;;;;;5088990;28;20040;-83
2022/12/16 02:16:49;;;;;;;37.15;20.35;;;-0.60;99.90;;;;;;5105551;28;20062;-82
2022/12/16 02:20:04;;;;;;;31.92;19.70;;;-0.60;99.90;;;;;;5089154;28;20044;-83
2022/12/16 02:22:58;;;;;;;39.92;20.58;;;-0.60;99.90;;;;;;5105575;28;20129;-83
2022/12/16 02:25:28;;;;;;;35.85;20.27;;;-0.60;99.90;;;;;;5124458;28;20032;-82
2022/12/16 02:28:03;;;;;;;35.25;19.80;;;-0.60;99.90;;;;;;5125501;28;20055;-82
2022/12/16 02:30:30;;;;;;;;;;;-0.60;99.90;;;;;;5109651;28;20046;-83
2022/12/16 02:33:03;;;;;;;32.55;19.17;;;-0.60;99.90;;;;;;5108424;28;19916;-83
2022/12/16 02:35:48;;;;;;;40.05;20.58;;;-0.60;99.90;;;;;;5092095;28;20075;-83
2022/12/16 02:38:27;;;;;;;32.83;19.88;;;-0.60;99.90;;;;;;5088549;28;20553;-83
2022/12/16 02:41:01;;;;;;;36.17;20.50;;;-0.60;99.90;;;;;;5104770;28;20053;-83
2022/12/16 02:43:49;;;;;;;40.05;20.10;;;-0.60;99.90;;;;;;5088869;28;20493;-83
2022/12/16 02:46:18;;;;;;;35.53;20.35;;;-0.60;99.90;;;;;;5088393;28;20059;-83
2022/12/16 02:48:44;;;;;;;36.50;20.77;;;-0.50;99.90;;;;;;5088330;28;20064;-82
2022/12/16 02:51:11;;;;;;;40.63;22.08;;;-0.50;99.90;;;;;;5071973;28;20033;-83
2022/12/16 02:53:41;;;;;;;40.92;21.63;;;-0.30;99.90;;;;;;5090698;28;20036;-83
2022/12/16 02:56:30;;;;;;;50.00;22.33;;;-0.50;99.90;;;;;;5091955;28;20527;-83
2022/12/16 02:59:28;;;;;;;42.03;23.02;;;-0.50;99.90;;;;;;5092130;28;20077;-83
2022/12/16 03:02:00;;;;;;;41.08;22.35;;;-0.50;99.90;;;;;;5108781;28;20493;-82
2022/12/16 03:04:34;;;;;;;39.78;21.50;;;-0.60;99.90;;;;;;5092430;28;20041;-82
2022/12/16 03:07:03;;;;;;;41.88;22.10;;;-0.50;99.90;;;;;;5111098;28;20492;-83
2022/12/16 03:09:33;;;;;;;40.13;22.35;;;-0.60;99.90;;;;;;5112621;28;20408;-83
2022/12/16 03:12:03;;;;;;;39.25;22.67;;;-0.60;99.90;;;;;;5111893;28;20093;-83
2022/12/16 03:14:33;;;;;;;42.10;22.33;;;-0.60;99.90;;;;;;5112043;28;20048;-82
2022/12/16 03:17:00;;;;;;;40.30;21.45;;;-0.60;99.90;;;;;;5111610;28;20052;-83
2022/12/16 03:19:28;;;;;;;36.47;21.05;;;-0.10;99.90;;;;;;5094909;28;20101;-83
2022/12/16 03:22:20;;;;;;;40.88;21.73;;;-0.60;99.90;;;;;;5128841;28;20084;-82
2022/12/16 03:24:47;;;;;;;43.08;22.45;;;-0.60;99.90;;;;;;5128648;28;20036;-81
2022/12/16 03:27:20;;;;;;;39.65;22.40;;;-0.60;99.90;;;;;;5111923;28;20040;-83
2022/12/16 03:29:49;;;;;;;41.22;21.80;;;0.30;99.90;;;;;;5111893;28;20040;-82
2022/12/16 03:32:34;;;;;;;38.42;21.80;;;-0.60;99.90;;;;;;5128941;28;20040;-83
2022/12/16 03:35:23;;;;;;;39.55;22.38;;;-0.60;99.90;;;;;;5111801;28;20048;-83
2022/12/16 03:37:54;;;;;;;38.05;20.80;;;-0.60;99.90;;;;;;5111514;28;20090;-82
2022/12/16 03:40:23;;;;;;;45.63;21.85;;;0.50;99.90;;;;;;5111717;28;20048;-83
2022/12/16 03:42:52;;;;;;;38.08;20.30;;;-0.50;99.90;;;;;;5095250;28;20396;-81
2022/12/16 03:45:24;;;;;;;39.25;22.13;;;-0.50;99.90;;;;;;5129050;28;20119;-83
2022/12/16 03:47:52;;;;;;;38.80;22.38;;;-0.20;99.90;;;;;;5097032;28;20041;-80
2022/12/16 03:50:24;;;;;;;40.78;22.85;;;-0.60;99.90;;;;;;5088475;28;20045;-82
2022/12/16 03:52:50;;;;;;;38.50;21.58;;;-0.50;99.90;;;;;;5091282;28;20045;-83
2022/12/16 03:55:17;;;;;;;41.72;21.58;;;-0.50;99.90;;;;;;5074888;28;20036;-84
2022/12/16 03:57:44;;;;;;;36.53;21.27;;;0.40;99.90;;;;;;5098931;28;20075;-84
2022/12/16 04:00:11;;;;;;;41.80;21.58;;;0.70;99.90;;;;;;5111089;28;20051;-83
2022/12/16 04:02:38;;;;;;;38.80;21.23;;;-0.50;99.90;;;;;;5094674;28;20507;-83
2022/12/16 04:05:05;;;;;;;37.38;21.58;;;-0.30;99.90;;;;;;5093860;28;20036;-84
2022/12/16 04:07:32;;;;;;;40.80;20.67;;;-0.50;99.90;;;;;;5126583;28;20039;-83
2022/12/16 04:09:59;;;;;;;36.85;21.88;;;-0.50;99.90;;;;;;5094418;28;20123;-83
2022/12/16 04:29:26;;;;;;;37.63;21.35;;;-0.40;99.90;;;;;;5112841;28;20040;-84
2022/12/16 04:31:53;;;;;;;38.53;20.67;;;-0.40;99.90;;;;;;5077308;28;20527;-84
2022/12/16 04:34:28;;;;;;;37.15;21.30;;;-0.40;99.90;;;;;;5073475;28;20036;-84
